Time;durP1;ratioP1;P1;durP2;ratioP2;P2;SDS_P1;SDS_P2;PMS_P1;PMS_P2;Temp;Humidity;BMP_temperature;BMP_pressure;BME280_temperature;BME280_humidity;BME280_pressure;Samples;Min_cycle;Max_cycle;Signal;HPM_P1;HPM_P2
2021/12/07 00:00:53;;;;;;;28.15;11.73;;;;;;;0.07;96.08;95457.94;4993907;28;20076;-75
2021/12/07 00:03:20;;;;;;;26.75;11.43;;;;;;;0.08;96.35;95460.31;4992231;28;20053;-75
2021/12/07 00:05:47;;;;;;;25.48;12.00;;;;;;;0.06;96.41;95446.00;4994327;28;20046;-75
2021/12/07 00:08:12;;;;;;;24.17;11.82;;;;;;;-0.03;96.32;95448.72;5013905;28;20038;-75
2021/12/07 00:10:41;;;;;;;26.80;12.73;;;;;;;0.15;96.53;95444.84;5004979;28;20049;-75
2021/12/07 00:13:09;;;;;;;28.10;12.10;;;;;;;0.09;96.36;95446.41;4996245;28;20042;-75
2021/12/07 00:15:36;;;;;;;29.60;13.23;;;;;;;-0.12;96.84;95449.03;4994934;28;20482;-74
2021/12/07 00:18:03;;;;;;;25.95;12.57;;;;;;;-0.03;96.95;95456.47;4993913;28;20039;-75
2021/12/07 00:20:29;;;;;;;29.70;13.15;;;;;;;0.00;96.84;95447.56;4994815;28;20041;-75
2021/12/07 00:22:56;;;;;;;26.70;11.93;;;;;;;0.02;96.60;95455.13;4996378;28;20138;-75
2021/12/07 00:25:23;;;;;;;29.88;13.85;;;;;;;0.01;96.33;95464.66;4996128;28;20061;-75
2021/12/07 00:27:50;;;;;;;26.02;12.90;;;;;;;0.08;96.15;95465.50;5003478;28;20062;-75
2021/12/07 00:30:16;;;;;;;26.85;12.13;;;;;;;0.07;96.38;95461.31;4997578;28;20038;-75
2021/12/07 00:32:50;;;;;;;28.83;11.68;;;;;;;0.04;96.66;95473.81;4997468;28;20070;-75
2021/12/07 00:35:33;;;;;;;29.80;12.80;;;;;;;0.17;95.58;95468.75;4997237;28;20104;-75
2021/12/07 00:38:00;;;;;;;28.15;12.20;;;;;;;0.07;96.54;95465.69;4997337;28;20034;-75
2021/12/07 00:40:26;;;;;;;28.50;13.38;;;;;;;0.03;96.80;95467.84;4997381;28;20049;-75
2021/12/07 00:42:55;;;;;;;28.90;12.50;;;;;;;0.01;96.99;95461.28;4995633;28;20042;-74
2021/12/07 00:45:22;;;;;;;30.73;13.18;;;;;;;0.15;96.78;95463.75;4996314;28;20065;-74
2021/12/07 00:47:50;;;;;;;26.55;12.52;;;;;;;0.07;96.63;95453.56;4996383;28;20038;-74
2021/12/07 00:50:17;;;;;;;24.50;11.48;;;;;;;0.17;96.20;95448.06;4996734;28;20106;-75
2021/12/07 00:52:45;;;;;;;25.30;11.93;;;;;;;0.18;95.86;95439.31;5008197;28;20033;-75
2021/12/07 00:55:16;;;;;;;29.08;12.60;;;;;;;0.16;96.46;95439.50;4996874;28;20130;-74
2021/12/07 00:57:42;;;;;;;29.08;13.27;;;;;;;0.08;96.29;95431.88;4997315;28;20042;-75
2021/12/07 01:00:15;;;;;;;26.13;12.55;;;;;;;0.06;96.23;95433.06;4997385;28;20049;-75
2021/12/07 01:02:43;;;;;;;26.00;12.57;;;;;;;-0.03;96.54;95411.72;4995397;28;20112;-76
2021/12/07 01:05:25;;;;;;;;;;;;;;;-0.14;97.34;95415.63;4996483;28;20050;-75
2021/12/07 01:08:14;;;;;;;25.88;11.40;;;;;;;-0.06;96.89;95427.59;4994731;28;19949;-75
2021/12/07 01:24:42;;;;;;;28.20;11.77;;;;;;;0.17;95.47;95422.19;5010588;28;20589;-75
2021/12/07 01:27:08;;;;;;;23.35;10.70;;;;;;;0.30;95.45;95422.25;5007305;28;20131;-75
2021/12/07 01:29:36;;;;;;;26.63;12.20;;;;;;;0.27;95.53;95412.31;5007865;28;20046;-75
2021/12/07 01:32:19;;;;;;;;;;;;;;;;;;;;;
2021/12/07 01:51:06;;;;;;;25.98;10.98;;;;;;;0.12;99.70;95399.50;4995178;28;20128;-75
2021/12/07 02:01:46;;;;;;;25.77;11.63;;;;;;;0.03;100.00;95408.38;4997554;28;20102;-76
2021/12/07 02:04:15;;;;;;;25.63;10.63;;;;;;;-0.01;100.00;95402.78;4994638;28;20506;-76
2021/12/07 02:06:41;;;;;;;28.38;12.38;;;;;;;-0.04;100.00;95405.75;4994919;28;20495;-76
2021/12/07 02:09:10;;;;;;;25.25;11.35;;;;;;;-0.11;100.00;95412.69;4995652;28;20062;-76
2021/12/07 02:11:36;;;;;;;27.95;12.13;;;;;;;-0.06;100.00;95412.09;4993437;28;20043;-75
2021/12/07 02:14:05;;;;;;;29.38;12.27;;;;;;;-0.16;100.00;95411.63;4994871;28;20034;-75
2021/12/07 02:16:31;;;;;;;29.27;11.15;;;;;;;-0.12;100.00;95407.69;4995142;28;20034;-76
2021/12/07 02:18:56;;;;;;;30.30;11.70;;;;;;;-0.04;100.00;95405.75;4995213;28;20038;-75
2021/12/07 02:21:25;;;;;;;25.95;11.85;;;;;;;-0.05;100.00;95404.16;4994866;28;20222;-75
2021/12/07 02:23:51;;;;;;;28.77;12.32;;;;;;;0.02;100.00;95398.22;4997960;28;20046;-75
2021/12/07 02:26:18;;;;;;;25.48;10.85;;;;;;;0.02;100.00;95393.84;4994757;28;20039;-76
2021/12/07 02:28:49;;;;;;;24.63;11.32;;;;;;;0.05;100.00;95393.47;4994765;28;20046;-76
2021/12/07 02:31:15;;;;;;;28.58;10.98;;;;;;;0.08;100.00;95398.25;4995116;28;20046;-75
2021/12/07 02:33:43;;;;;;;25.83;11.02;;;;;;;0.10;100.00;95393.69;4994373;28;20411;-75
2021/12/07 02:36:09;;;;;;;;;;;;;;;0.10;100.00;95396.28;4994868;28;20105;-76
2021/12/07 02:38:36;;;;;;;25.65;10.20;;;;;;;0.09;100.00;95405.03;4993001;28;19938;-75
2021/12/07 02:41:05;;;;;;;27.83;10.43;;;;;;;0.01;100.00;95391.47;4994881;28;20450;-76
2021/12/07 02:43:31;;;;;;;24.23;10.65;;;;;;;0.14;100.00;95402.66;4994233;28;20046;-77
2021/12/07 02:45:57;;;;;;;26.85;11.55;;;;;;;0.12;100.00;95389.16;5002680;28;20077;-77
2021/12/07 02:48:23;;;;;;;27.60;11.25;;;;;;;0.17;100.00;95386.78;5023527;23;20058;-78
2021/12/07 02:50:50;;;;;;;25.63;10.57;;;;;;;0.14;100.00;95401.88;4999312;28;20092;-78
2021/12/07 02:53:17;;;;;;;25.20;10.88;;;;;;;0.22;100.00;95391.38;4998475;28;20557;-78
2021/12/07 02:55:44;;;;;;;24.90;10.45;;;;;;;0.10;100.00;95398.88;5014428;28;20073;-78
2021/12/07 02:58:10;;;;;;;25.23;10.88;;;;;;;0.19;100.00;95391.75;4999298;28;20105;-77
2021/12/07 03:00:44;;;;;;;23.35;10.80;;;;;;;0.18;100.00;95398.72;4998492;28;20050;-78
2021/12/07 03:03:12;;;;;;;26.35;10.73;;;;;;;0.15;100.00;95393.91;4995068;28;20537;-77
2021/12/07 03:08:44;;;;;;;21.95;10.23;;;;;;;0.07;100.00;95401.03;5017252;28;20061;-77
2021/12/07 03:27:29;;;;;;;23.30;10.73;;;;;;;0.08;100.00;95398.25;5002087;28;20092;-78
2021/12/07 03:29:57;;;;;;;22.33;10.43;;;;;;;0.08;100.00;95418.94;5004561;28;20046;-78
2021/12/07 03:32:26;;;;;;;;;;;;;;;0.09;100.00;95404.22;5005805;28;20035;-77
2021/12/07 03:34:51;;;;;;;22.00;9.23;;;;;;;0.10;100.00;95406.63;4997832;28;19928;-77
2021/12/07 03:37:17;;;;;;;22.02;9.80;;;;;;;0.12;100.00;95419.38;5001861;28;20042;-78
2021/12/07 03:39:42;;;;;;;19.02;8.85;;;;;;;0.15;100.00;95427.53;4998553;28;20046;-78
2021/12/07 03:42:08;;;;;;;22.13;10.27;;;;;;;0.12;100.00;95417.59;4997317;28;20043;-78
2021/12/07 03:44:35;;;;;;;20.08;9.52;;;;;;;0.17;100.00;95423.00;4997582;28;20096;-78
2021/12/07 03:47:03;;;;;;;23.88;10.27;;;;;;;0.20;100.00;95420.00;4998689;28;20034;-79
2021/12/07 03:49:28;;;;;;;22.45;10.00;;;;;;;0.26;100.00;95427.00;4999914;28;20577;-79
2021/12/07 03:51:54;;;;;;;20.63;9.07;;;;;;;0.20;100.00;95430.34;4999347;28;20076;-79
2021/12/07 03:54:20;;;;;;;22.85;10.82;;;;;;;0.32;100.00;95440.16;4999698;28;20449;-79
2021/12/07 03:56:48;;;;;;;22.42;10.13;;;;;;;0.17;100.00;95440.31;5006769;28;20042;-77
2021/12/07 03:59:14;;;;;;;;;;;;;;;0.30;100.00;95442.16;5001702;28;20046;-78
2021/12/07 04:01:43;;;;;;;22.17;9.88;;;;;;;0.19;100.00;95449.44;4997460;28;19925;-81
2021/12/07 04:04:09;;;;;;;22.48;10.23;;;;;;;0.25;100.00;95456.44;4998201;28;20042;-78
2021/12/07 04:06:34;;;;;;;20.40;9.13;;;;;;;0.24;100.00;95465.19;5002989;28;20139;-78
2021/12/07 04:09:00;;;;;;;22.90;10.85;;;;;;;0.18;100.00;95453.03;5004301;28;20122;-79
2021/12/07 04:11:29;;;;;;;22.05;10.20;;;;;;;0.32;100.00;95460.84;4999792;28;20042;-78
2021/12/07 04:13:57;;;;;;;24.13;9.80;;;;;;;0.21;100.00;95452.63;5000354;28;20046;-79
2021/12/07 04:16:23;;;;;;;22.90;9.80;;;;;;;0.17;100.00;95458.41;4999402;28;20078;-79
2021/12/07 04:18:52;;;;;;;20.77;10.43;;;;;;;0.21;100.00;95465.56;4999514;28;20049;-79
2021/12/07 04:21:19;;;;;;;24.55;11.10;;;;;;;0.09;100.00;95459.31;4997528;28;20058;-78
2021/12/07 04:23:44;;;;;;;21.80;10.43;;;;;;;0.06;100.00;95462.31;4995639;28;20046;-77
2021/12/07 04:26:12;;;;;;;24.13;10.43;;;;;;;0.12;100.00;95469.31;4997432;28;20057;-79
2021/12/07 04:28:39;;;;;;;23.30;9.75;;;;;;;0.03;100.00;95477.38;4998482;28;20039;-78
2021/12/07 04:31:06;;;;;;;21.38;8.90;;;;;;;-0.01;100.00;95479.53;5009383;28;20462;-77
2021/12/07 04:33:34;;;;;;;21.52;9.27;;;;;;;0.08;100.00;95481.00;4998787;28;20491;-78
2021/12/07 04:36:03;;;;;;;20.33;8.75;;;;;;;0.11;100.00;95482.41;4997888;28;20104;-78
2021/12/07 04:38:28;;;;;;;18.23;7.85;;;;;;;0.18;100.00;95480.69;4996443;28;20089;-79
2021/12/07 04:40:55;;;;;;;21.27;8.57;;;;;;;0.13;100.00;95480.44;4998360;28;20062;-77
2021/12/07 04:43:20;;;;;;;17.55;8.57;;;;;;;0.13;100.00;95476.06;4995641;28;20054;-78
2021/12/07 04:46:08;;;;;;;19.85;8.95;;;;;;;0.17;100.00;95472.13;4997294;28;20461;-79
2021/12/07 04:59:31;;;;;;;16.90;7.70;;;;;;;0.23;100.00;95479.13;4999863;28;20056;-79
2021/12/07 05:01:57;;;;;;;19.00;7.88;;;;;;;0.15;100.00;95492.19;4999956;28;20042;-78
2021/12/07 05:04:27;;;;;;;17.02;7.75;;;;;;;0.14;100.00;95485.44;5014789;28;20418;-79
2021/12/07 05:07:01;;;;;;;16.88;7.15;;;;;;;0.22;100.00;95497.44;5010640;28;20110;-78
2021/12/07 05:14:58;;;;;;;16.73;7.40;;;;;;;0.23;100.00;95492.06;5004884;28;20049;-79
2021/12/07 05:17:45;;;;;;;15.37;7.13;;;;;;;0.30;100.00;95494.69;5010586;28;20065;-79
2021/12/07 05:39:27;;;;;;;17.33;7.85;;;;;;;0.25;100.00;95523.69;5003310;28;20054;-79
2021/12/07 05:41:52;;;;;;;16.52;7.13;;;;;;;0.39;100.00;95528.97;5002898;28;20046;-79
2021/12/07 05:44:18;;;;;;;14.52;7.13;;;;;;;0.38;100.00;95528.19;5002932;28;20043;-79
2021/12/07 05:46:43;;;;;;;15.57;7.57;;;;;;;0.43;100.00;95535.34;5002040;28;20109;-79
2021/12/07 05:49:12;;;;;;;14.38;6.40;;;;;;;0.42;100.00;95531.19;5003728;28;20049;-79
2021/12/07 05:51:37;;;;;;;;;;;;;;;0.54;100.00;95540.03;5001991;28;20106;-80
2021/12/07 05:54:03;;;;;;;13.48;6.35;;;;;;;0.38;100.00;95548.09;5002049;28;19991;-78
2021/12/07 05:56:30;;;;;;;15.13;6.82;;;;;;;0.37;100.00;95541.28;5002834;28;20117;-79
2021/12/07 05:58:55;;;;;;;13.45;6.28;;;;;;;0.41;100.00;95553.66;5003324;28;20406;-78
2021/12/07 06:01:21;;;;;;;16.65;6.43;;;;;;;0.36;100.00;95558.59;5007651;28;20026;-80
2021/12/07 06:03:47;;;;;;;13.38;6.43;;;;;;;0.38;100.00;95559.22;5011994;28;20061;-78
2021/12/07 06:06:13;;;;;;;16.38;6.70;;;;;;;0.38;100.00;95564.41;5008096;28;20391;-78
2021/12/07 06:08:41;;;;;;;14.57;6.70;;;;;;;0.25;100.00;95570.25;5004007;28;20043;-79
2021/12/07 06:11:09;;;;;;;16.83;7.03;;;;;;;0.30;100.00;95579.25;5003651;28;20058;-78
2021/12/07 06:13:36;;;;;;;12.10;5.68;;;;;;;0.27;100.00;95572.69;5012800;28;20050;-79
2021/12/07 06:16:06;;;;;;;14.88;6.57;;;;;;;0.21;100.00;95574.19;5011206;28;20046;-78
2021/12/07 06:18:32;;;;;;;14.82;6.07;;;;;;;0.14;100.00;95568.19;5011145;28;20038;-79
2021/12/07 06:20:57;;;;;;;15.30;6.55;;;;;;;0.15;100.00;95568.97;5010498;28;20057;-79
2021/12/07 06:23:23;;;;;;;11.77;5.32;;;;;;;0.21;100.00;95579.38;5008477;28;20050;-78
2021/12/07 06:25:49;;;;;;;13.50;6.55;;;;;;;0.15;100.00;95574.16;5002062;28;20473;-78
2021/12/07 06:28:16;;;;;;;14.68;6.50;;;;;;;0.14;100.00;95596.63;5002606;28;20065;-79
2021/12/07 06:30:44;;;;;;;14.15;6.20;;;;;;;0.11;100.00;95604.78;5002338;28;20054;-80
2021/12/07 06:33:11;;;;;;;13.05;5.95;;;;;;;0.08;100.00;95589.63;5001765;28;20453;-78
2021/12/07 06:35:39;;;;;;;15.23;5.70;;;;;;;0.11;100.00;95599.59;5004594;28;20054;-79
2021/12/07 06:38:05;;;;;;;13.63;6.15;;;;;;;0.00;100.00;95602.69;5014566;28;20101;-79
2021/12/07 06:40:31;;;;;;;15.20;6.40;;;;;;;-0.01;100.00;95612.19;5003309;28;20107;-78
2021/12/07 06:42:59;;;;;;;16.13;7.13;;;;;;;0.00;100.00;95610.44;5001110;28;20076;-78
2021/12/07 06:45:26;;;;;;;13.38;5.90;;;;;;;0.05;100.00;95595.13;5000831;28;20109;-78
2021/12/07 06:47:53;;;;;;;14.85;6.75;;;;;;;0.01;100.00;95606.06;5008026;28;20038;-78
2021/12/07 06:50:19;;;;;;;15.93;6.50;;;;;;;0.01;100.00;95608.66;4999278;28;20042;-78
2021/12/07 06:52:45;;;;;;;15.50;7.20;;;;;;;-0.05;100.00;95615.34;4999888;28;20073;-78
2021/12/07 06:55:11;;;;;;;15.18;6.93;;;;;;;0.01;100.00;95624.97;5001505;28;20046;-80
2021/12/07 06:57:39;;;;;;;14.98;6.25;;;;;;;0.05;100.00;95631.34;5003867;28;20098;-79
2021/12/07 07:00:10;;;;;;;14.07;6.25;;;;;;;0.04;100.00;95619.41;5005115;28;20046;-78
2021/12/07 07:02:35;;;;;;;16.50;7.07;;;;;;;0.07;100.00;95619.03;5014718;28;20030;-78
2021/12/07 07:05:03;;;;;;;16.95;7.05;;;;;;;0.24;100.00;95628.16;5009306;28;20042;-79
2021/12/07 07:07:28;;;;;;;16.23;7.32;;;;;;;0.19;100.00;95633.06;5001332;28;20454;-78
2021/12/07 07:09:54;;;;;;;14.65;6.55;;;;;;;0.12;100.00;95627.06;5002020;28;20101;-78
2021/12/07 07:12:20;;;;;;;14.93;6.47;;;;;;;0.04;100.00;95618.59;5000197;28;20062;-78
2021/12/07 07:14:49;;;;;;;16.10;6.90;;;;;;;0.11;100.00;95635.81;5001105;28;20563;-78
2021/12/07 07:17:16;;;;;;;17.13;6.90;;;;;;;0.01;100.00;95645.66;5004077;28;20108;-79
2021/12/07 07:19:42;;;;;;;16.73;6.63;;;;;;;0.09;100.00;95642.13;4999347;28;20066;-78
2021/12/07 07:22:09;;;;;;;14.05;6.35;;;;;;;0.05;100.00;95641.69;5000795;28;20042;-79
2021/12/07 07:24:35;;;;;;;17.02;6.80;;;;;;;-0.01;100.00;95635.47;4999530;28;20537;-79
2021/12/07 07:27:01;;;;;;;13.07;5.18;;;;;;;0.17;100.00;95645.41;4998599;28;20038;-79
2021/12/07 07:29:27;;;;;;;13.35;5.05;;;;;;;0.13;100.00;95648.53;4999986;28;20038;-78
2021/12/07 07:31:55;;;;;;;12.65;4.75;;;;;;;0.14;100.00;95640.59;4998603;28;20046;-78
2021/12/07 07:34:21;;;;;;;;;;;;;;;0.18;100.00;95647.00;4999825;28;20107;-78
2021/12/07 07:36:46;;;;;;;10.80;3.88;;;;;;;0.16;100.00;95638.63;5009959;28;19968;-77
2021/12/07 07:39:14;;;;;;;10.77;3.00;;;;;;;0.22;100.00;95631.94;5003150;28;20061;-79
2021/12/07 07:41:40;;;;;;;;;;;;;;;0.30;100.00;95643.91;5002132;28;20061;-77
2021/12/07 07:44:06;;;;;;;8.63;2.95;;;;;;;0.27;100.00;95645.09;5001499;28;19982;-77
2021/12/07 07:46:35;;;;;;;6.57;2.90;;;;;;;0.22;100.00;95632.72;5003933;28;20570;-79
2021/12/07 07:49:00;;;;;;;;;;;;;;;0.25;100.00;95637.50;5005441;28;20034;-79
2021/12/07 07:51:26;;;;;;;7.25;2.40;;;;;;;0.20;100.00;95647.59;5002934;28;19925;-80
2021/12/07 07:53:54;;;;;;;7.53;2.28;;;;;;;0.19;100.00;95653.78;5001714;28;20054;-80
2021/12/07 07:56:21;;;;;;;8.02;3.00;;;;;;;0.24;100.00;95650.63;5002841;28;20034;-78
2021/12/07 07:58:49;;;;;;;8.25;2.85;;;;;;;0.14;100.00;95660.47;5003244;28;20042;-78
2021/12/07 08:01:15;;;;;;;9.88;3.38;;;;;;;0.18;100.00;95662.53;5001853;28;20101;-78
2021/12/07 08:03:41;;;;;;;9.85;3.63;;;;;;;0.19;100.00;95658.16;5002889;28;20050;-79
2021/12/07 08:06:06;;;;;;;10.75;3.97;;;;;;;0.21;100.00;95672.47;5003181;28;20062;-80
2021/12/07 08:08:32;;;;;;;12.13;4.45;;;;;;;0.23;100.00;95664.56;5002126;28;20034;-78
2021/12/07 08:10:58;;;;;;;14.70;5.20;;;;;;;0.23;100.00;95680.09;5002220;28;20089;-78
2021/12/07 08:13:25;;;;;;;14.07;5.38;;;;;;;0.25;100.00;95686.66;5008428;28;20073;-79
2021/12/07 08:15:51;;;;;;;11.07;4.82;;;;;;;0.20;100.00;95701.13;4999713;28;20054;-78
2021/12/07 08:18:16;;;;;;;13.35;5.47;;;;;;;0.34;100.00;95707.25;4999485;28;20038;-78
2021/12/07 08:20:43;;;;;;;13.80;5.63;;;;;;;0.40;100.00;95722.03;5001117;28;20064;-79
2021/12/07 08:23:10;;;;;;;14.27;5.85;;;;;;;0.54;100.00;95716.00;5003598;28;20058;-78
2021/12/07 08:25:38;;;;;;;12.63;5.72;;;;;;;0.57;100.00;95728.56;5015469;28;20038;-78
2021/12/07 08:28:07;;;;;;;;;;;;;;;0.58;100.00;95724.19;5005183;28;20054;-79
2021/12/07 08:30:34;;;;;;;12.57;5.10;;;;;;;0.77;100.00;95716.59;5004236;28;19921;-78
2021/12/07 08:33:00;;;;;;;11.68;4.90;;;;;;;0.77;100.00;95714.00;5019013;28;20097;-79
2021/12/07 08:35:26;;;;;;;12.82;5.10;;;;;;;0.73;100.00;95735.28;5002930;28;20062;-79
2021/12/07 08:37:53;;;;;;;10.70;4.78;;;;;;;0.77;100.00;95721.78;5003131;28;20050;-80
2021/12/07 08:40:22;;;;;;;11.65;4.47;;;;;;;0.68;100.00;95728.06;5001349;28;20121;-80
2021/12/07 08:42:48;;;;;;;10.77;4.32;;;;;;;0.83;100.00;95727.19;5005339;28;20069;-79
2021/12/07 08:45:17;;;;;;;10.30;4.07;;;;;;;0.68;100.00;95725.47;5010757;28;20039;-78
2021/12/07 08:47:47;;;;;;;10.38;4.57;;;;;;;0.67;100.00;95734.22;5032382;23;20089;-79
2021/12/07 08:50:17;;;;;;;10.50;4.43;;;;;;;0.66;100.00;95730.03;5023083;28;20050;-77
2021/12/07 08:52:43;;;;;;;11.52;5.15;;;;;;;0.78;100.00;95731.13;5021596;28;20490;-78
2021/12/07 09:00:27;;;;;;;11.30;5.18;;;;;;;0.81;100.00;95723.97;5018812;28;20126;-78
2021/12/07 09:02:55;;;;;;;10.95;5.07;;;;;;;0.90;100.00;95733.22;5018751;28;20470;-79
2021/12/07 09:05:20;;;;;;;11.67;5.03;;;;;;;0.89;100.00;95734.22;5019654;28;20073;-78
2021/12/07 09:07:50;;;;;;;13.55;5.72;;;;;;;0.85;100.00;95732.97;5020265;28;20038;-78
2021/12/07 09:10:16;;;;;;;12.30;5.18;;;;;;;0.91;100.00;95745.19;5018362;28;20041;-78
2021/12/07 09:12:42;;;;;;;11.55;4.75;;;;;;;1.00;100.00;95749.25;5018067;28;20045;-79
2021/12/07 09:15:11;;;;;;;12.60;5.28;;;;;;;1.02;100.00;95742.91;5017344;28;20038;-77
2021/12/07 09:17:37;;;;;;;10.80;4.50;;;;;;;0.93;100.00;95745.81;5025471;28;20053;-78
2021/12/07 09:20:09;;;;;;;10.43;4.13;;;;;;;1.02;100.00;95747.25;5031341;28;20050;-78
2021/12/07 09:22:35;;;;;;;10.40;4.22;;;;;;;1.05;100.00;95750.28;5035469;28;20042;-78
2021/12/07 09:25:00;;;;;;;11.38;5.03;;;;;;;1.11;100.00;95746.16;5035370;28;20034;-79
2021/12/07 09:27:26;;;;;;;10.52;4.60;;;;;;;1.16;100.00;95764.53;5034520;28;20108;-78
2021/12/07 09:29:52;;;;;;;11.60;4.53;;;;;;;1.18;100.00;95762.53;5034166;28;20042;-78
2021/12/07 09:32:17;;;;;;;13.68;4.60;;;;;;;1.15;100.00;95757.75;5022759;28;20064;-79
2021/12/07 09:34:43;;;;;;;13.63;4.28;;;;;;;1.40;99.96;95755.53;5018064;28;20492;-79
2021/12/07 09:37:10;;;;;;;9.65;3.95;;;;;;;1.38;99.75;95735.97;5017602;28;20050;-79
2021/12/07 09:39:36;;;;;;;10.02;4.50;;;;;;;1.51;98.74;95746.44;5022447;28;20065;-79
2021/12/07 09:42:02;;;;;;;11.48;4.43;;;;;;;1.56;98.44;95744.03;5035068;28;20042;-79
2021/12/07 09:44:28;;;;;;;13.60;4.30;;;;;;;1.71;98.03;95749.91;5030485;28;20460;-79
2021/12/07 09:46:55;;;;;;;9.27;4.03;;;;;;;1.45;98.00;95752.34;5024344;28;20060;-78
2021/12/07 09:49:21;;;;;;;14.32;4.53;;;;;;;1.67;97.91;95756.50;5019753;28;20096;-78
2021/12/07 09:51:49;;;;;;;12.60;4.20;;;;;;;1.60;97.90;95755.63;5018121;28;20107;-77
2021/12/07 09:54:16;;;;;;;;;;;;;;;1.70;97.13;95761.28;5018900;28;20124;-77
2021/12/07 09:56:42;;;;;;;11.60;4.20;;;;;;;1.86;97.25;95767.97;5034159;28;19944;-80
2021/12/07 09:59:12;;;;;;;9.40;3.60;;;;;;;1.69;97.02;95775.25;5024774;28;20428;-79
2021/12/07 10:01:43;;;;;;;9.88;3.50;;;;;;;1.73;96.54;95776.47;5022588;28;20061;-78
2021/12/07 10:04:09;;;;;;;11.50;4.00;;;;;;;1.67;97.05;95782.44;5019197;28;20050;-78
2021/12/07 10:06:35;;;;;;;10.43;3.70;;;;;;;1.66;97.18;95775.63;5019371;28;20514;-79
2021/12/07 10:09:02;;;;;;;8.98;3.65;;;;;;;1.73;97.07;95767.91;5018355;28;20417;-78
2021/12/07 10:11:29;;;;;;;11.05;4.05;;;;;;;1.72;97.32;95761.09;5018860;28;20061;-79
2021/12/07 10:13:54;;;;;;;12.18;3.85;;;;;;;1.76;96.43;95754.53;5020570;28;20164;-79
2021/12/07 10:16:22;;;;;;;8.32;3.70;;;;;;;1.84;96.88;95762.97;5019681;28;20058;-79
2021/12/07 10:18:50;;;;;;;8.95;3.58;;;;;;;1.79;95.77;95749.78;5019392;28;20038;-79
2021/12/07 10:21:22;;;;;;;9.43;3.35;;;;;;;1.95;95.98;95750.44;5018675;28;20433;-79
2021/12/07 10:23:50;;;;;;;11.45;3.55;;;;;;;2.03;95.81;95755.47;5019672;28;20042;-78
2021/12/07 10:26:23;;;;;;;9.98;3.30;;;;;;;2.01;95.23;95747.09;5019969;28;20494;-78
2021/12/07 10:28:52;;;;;;;10.27;3.65;;;;;;;2.04;95.08;95757.06;5020023;28;20091;-78
2021/12/07 10:31:25;;;;;;;8.90;3.20;;;;;;;2.13;95.11;95761.09;5018896;28;20525;-79
2021/12/07 10:33:54;;;;;;;9.32;3.60;;;;;;;2.09;94.32;95765.84;5019230;28;20050;-79
2021/12/07 10:36:20;;;;;;;;;;;;;;;2.13;94.72;95771.47;5018065;28;20038;-79
2021/12/07 10:38:53;;;;;;;8.23;3.20;;;;;;;2.16;94.68;95776.28;5020290;28;19921;-78
2021/12/07 10:41:23;;;;;;;11.25;3.50;;;;;;;2.33;93.92;95780.16;5018845;28;20057;-79
2021/12/07 10:43:53;;;;;;;13.20;4.25;;;;;;;2.25;93.79;95741.38;5019003;28;20045;-78
2021/12/07 10:46:31;;;;;;;9.63;3.50;;;;;;;2.39;93.40;95767.38;5018675;28;20095;-78
2021/12/07 10:49:26;;;;;;;8.45;3.17;;;;;;;2.32;93.58;95755.19;5016422;28;20042;-79
2021/12/07 10:52:00;;;;;;;9.80;3.42;;;;;;;2.31;93.23;95758.78;5019266;28;20042;-78
2021/12/07 10:54:28;;;;;;;9.02;3.45;;;;;;;2.43;92.66;95763.41;5019356;28;20049;-80
2021/12/07 10:56:57;;;;;;;9.25;3.80;;;;;;;2.55;93.10;95744.47;5017986;28;20080;-78
2021/12/07 10:59:24;;;;;;;8.65;3.22;;;;;;;2.51;92.09;95753.63;5018212;28;20046;-78
2021/12/07 11:01:53;;;;;;;8.73;3.45;;;;;;;2.44;92.50;95747.63;5018160;28;20046;-79
2021/12/07 11:04:24;;;;;;;8.00;3.10;;;;;;;2.40;92.26;95748.22;5020331;28;20046;-78
2021/12/07 11:07:08;;;;;;;8.57;3.20;;;;;;;2.31;92.27;95745.81;5020123;28;20045;-78
2021/12/07 11:09:48;;;;;;;9.13;3.40;;;;;;;2.47;92.15;95734.25;5049318;28;20065;-78
2021/12/07 11:12:16;;;;;;;9.13;3.25;;;;;;;2.62;91.15;95728.88;5029239;28;20042;-78
2021/12/07 11:14:49;;;;;;;8.85;3.53;;;;;;;2.70;90.12;95739.09;5020197;28;20053;-79
2021/12/07 11:17:17;;;;;;;8.55;3.33;;;;;;;2.59;90.06;95727.50;5018789;28;20050;-79
2021/12/07 11:19:42;;;;;;;8.48;2.90;;;;;;;2.50;90.62;95733.06;5019148;28;20094;-79
2021/12/07 11:22:13;;;;;;;8.57;2.95;;;;;;;2.52;90.74;95728.47;5019049;28;20073;-79
2021/12/07 11:24:43;;;;;;;9.07;2.53;;;;;;;2.23;90.16;95722.59;5018643;28;20441;-78
2021/12/07 11:30:03;;;;;;;8.98;3.08;;;;;;;2.06;91.06;95703.22;5026325;28;20080;-78
2021/12/07 11:32:30;;;;;;;9.63;3.28;;;;;;;2.33;90.75;95704.06;5026566;28;20077;-78
2021/12/07 11:35:07;;;;;;;10.13;2.90;;;;;;;2.43;90.13;95703.72;5016768;28;20068;-78
2021/12/07 11:37:35;;;;;;;7.32;2.83;;;;;;;2.51;90.52;95690.53;5017684;28;20073;-78
2021/12/07 11:40:02;;;;;;;8.75;2.75;;;;;;;2.49;89.39;95688.13;5017651;28;20103;-78
2021/12/07 11:42:30;;;;;;;8.63;2.92;;;;;;;2.75;89.27;95682.16;5017778;28;20101;-78
2021/12/07 11:44:59;;;;;;;8.40;2.90;;;;;;;2.92;88.19;95679.16;5016952;28;20502;-78
2021/12/07 11:47:29;;;;;;;7.50;2.72;;;;;;;2.97;88.32;95700.16;5028905;28;20081;-79
2021/12/07 11:49:56;;;;;;;9.20;2.70;;;;;;;2.97;86.64;95694.97;5033914;28;20042;-78
2021/12/07 11:52:22;;;;;;;7.53;2.38;;;;;;;3.15;85.92;95702.94;5017764;28;20078;-77
2021/12/07 11:54:48;;;;;;;7.78;2.55;;;;;;;3.33;84.17;95686.69;5017090;28;20053;-77
2021/12/07 11:57:16;;;;;;;7.40;2.35;;;;;;;3.40;83.95;95700.50;5027807;28;20038;-79
2021/12/07 11:59:43;;;;;;;;;;;;;;;3.18;83.55;95705.13;5030598;28;20046;-78
2021/12/07 12:02:11;;;;;;;6.47;2.05;;;;;;;3.31;83.39;95707.72;5023063;28;19921;-78
2021/12/07 12:04:39;;;;;;;;;;;;;;;3.35;82.46;95700.31;5020726;28;20072;-78
2021/12/07 12:07:08;;;;;;;6.55;1.98;;;;;;;3.47;82.45;95698.69;5018837;28;19929;-78
2021/12/07 12:09:35;;;;;;;8.40;2.00;;;;;;;3.51;82.39;95701.69;5018712;28;20053;-78
2021/12/07 12:12:12;;;;;;;8.38;2.30;;;;;;;3.42;82.01;95699.28;5020441;28;20092;-79
2021/12/07 12:14:49;;;;;;;9.85;2.30;;;;;;;3.34;80.91;95699.53;5018795;28;20049;-78
2021/12/07 12:17:23;;;;;;;8.38;1.95;;;;;;;3.28;81.20;95689.09;5017425;28;20042;-78
2021/12/07 12:20:11;;;;;;;6.45;2.08;;;;;;;3.38;82.55;95679.88;5023014;28;20072;-78
2021/12/07 12:22:42;;;;;;;11.82;2.67;;;;;;;3.57;82.14;95675.66;5022207;28;20045;-78
2021/12/07 12:25:10;;;;;;;6.30;2.22;;;;;;;3.53;82.12;95690.06;5021491;28;20085;-78
2021/12/07 12:27:38;;;;;;;;;;;;;;;3.62;81.91;95675.06;5021612;28;20068;-80
2021/12/07 12:30:16;;;;;;;9.70;2.30;;;;;;;3.66;82.08;95668.44;5022705;28;20337;-79
2021/12/07 12:32:43;;;;;;;8.77;2.45;;;;;;;3.85;82.26;95664.94;5032656;28;20034;-79
2021/12/07 12:35:13;;;;;;;7.07;1.95;;;;;;;3.75;81.97;95672.38;5035829;28;20105;-78
2021/12/07 12:37:45;;;;;;;6.07;1.88;;;;;;;3.85;83.04;95672.75;5035282;28;20038;-77
2021/12/07 12:40:18;;;;;;;7.93;2.42;;;;;;;3.86;80.78;95663.94;5035322;28;20045;-77
2021/12/07 12:42:47;;;;;;;6.47;1.90;;;;;;;4.08;80.29;95651.41;5034825;28;20046;-79
2021/12/07 12:45:22;;;;;;;6.57;2.00;;;;;;;3.79;80.38;95652.78;5036381;28;20026;-78
2021/12/07 12:47:55;;;;;;;5.57;1.90;;;;;;;3.76;81.21;95645.38;5037564;28;20101;-79
2021/12/07 12:50:27;;;;;;;8.23;2.05;;;;;;;3.71;80.57;95637.38;5037619;28;20157;-78
2021/12/07 12:52:58;;;;;;;5.88;1.60;;;;;;;3.68;80.24;95645.63;5037627;28;20060;-82
2021/12/07 12:55:43;;;;;;;7.18;1.90;;;;;;;3.64;81.38;95647.03;5032199;28;20041;-79
2021/12/07 12:58:14;;;;;;;7.97;2.40;;;;;;;3.63;80.79;95627.22;5025697;28;20092;-79
2021/12/07 13:01:07;;;;;;;7.43;1.90;;;;;;;3.50;82.31;95648.06;5024603;28;20057;-79
2021/12/07 13:04:04;;;;;;;7.93;2.25;;;;;;;3.59;81.43;95636.44;5022691;28;20041;-78
2021/12/07 13:07:02;;;;;;;6.57;2.00;;;;;;;3.63;81.59;95627.22;5021578;28;20065;-78
2021/12/07 13:09:43;;;;;;;8.85;2.17;;;;;;;3.74;81.59;95631.78;5023281;28;20116;-77
2021/12/07 13:12:14;;;;;;;8.52;2.08;;;;;;;3.67;80.07;95624.00;5023204;28;20045;-78
2021/12/07 13:14:52;;;;;;;9.35;2.45;;;;;;;3.60;80.37;95614.63;5023500;28;20070;-78
2021/12/07 13:17:20;;;;;;;;;;;;;;;3.73;80.07;95611.97;5022129;28;20504;-77
2021/12/07 13:20:22;;;;;;;6.35;1.80;;;;;;;3.64;79.80;95602.81;5022367;28;20353;-78
2021/12/07 13:22:54;;;;;;;8.75;2.25;;;;;;;3.65;80.36;95620.00;5022359;28;20101;-78